Time;durP1;ratioP1;P1;durP2;ratioP2;P2;SDS_P1;SDS_P2;PMS_P1;PMS_P2;Temp;Humidity;BMP_temperature;BMP_pressure;BME280_temperature;BME280_humidity;BME280_pressure;Samples;Min_cycle;Max_cycle;Signal;HPM_P1;HPM_P2
2024/03/06 00:01:59;;;;;;;1999.90;999.90;;;9.60;99.90;;;;;;5053271;28;20028;-79
2024/03/06 00:04:24;;;;;;;1999.90;999.90;;;9.60;99.90;;;;;;5056802;28;20479;-77
2024/03/06 00:06:51;;;;;;;1999.90;999.90;;;9.60;99.90;;;;;;5054538;28;20059;-77
2024/03/06 00:09:18;;;;;;;1999.90;999.90;;;9.60;99.90;;;;;;5053035;28;20041;-79
2024/03/06 00:11:44;;;;;;;1999.90;999.90;;;9.70;99.90;;;;;;5055585;28;20024;-78
2024/03/06 00:14:12;;;;;;;1999.90;999.90;;;9.70;99.90;;;;;;5052863;28;20029;-79
2024/03/06 00:16:38;;;;;;;1999.90;999.90;;;9.80;99.90;;;;;;5054090;28;20403;-78
2024/03/06 00:19:04;;;;;;;1999.90;999.90;;;9.80;99.90;;;;;;5053835;28;20041;-78
2024/03/06 00:21:30;;;;;;;1999.90;999.90;;;9.80;99.90;;;;;;5054018;28;20028;-79
2024/03/06 00:23:55;;;;;;;1999.90;999.90;;;9.80;99.90;;;;;;5054585;28;20025;-77
2024/03/06 00:26:21;;;;;;;1999.90;999.90;;;9.80;99.90;;;;;;5054145;28;20017;-78
2024/03/06 00:28:47;;;;;;;1999.90;999.90;;;9.80;99.90;;;;;;5055152;28;20015;-79
2024/03/06 00:31:13;;;;;;;1999.90;999.90;;;9.80;99.90;;;;;;5053812;28;20020;-77
2024/03/06 00:33:40;;;;;;;1999.90;999.90;;;9.80;99.90;;;;;;5052012;28;20057;-78
2024/03/06 00:36:06;;;;;;;1999.90;999.90;;;9.90;99.90;;;;;;5053861;28;20049;-77
2024/03/06 00:38:34;;;;;;;1999.90;999.90;;;9.90;99.90;;;;;;5052593;28;20029;-78
2024/03/06 00:41:00;;;;;;;1999.90;999.90;;;9.80;99.90;;;;;;5052542;28;20120;-77
2024/03/06 00:43:26;;;;;;;1999.90;999.90;;;9.80;99.90;;;;;;5055106;28;20068;-77
2024/03/06 00:45:51;;;;;;;1999.90;999.90;;;9.90;99.90;;;;;;5052096;28;20025;-79
2024/03/06 00:48:19;;;;;;;1999.90;999.90;;;9.90;99.90;;;;;;5055392;28;20013;-78
2024/03/06 00:50:45;;;;;;;1999.90;999.90;;;10.00;99.90;;;;;;5053490;28;20017;-79
2024/03/06 00:53:11;;;;;;;1999.90;999.90;;;10.00;99.90;;;;;;5052247;28;20028;-77
2024/03/06 00:55:37;;;;;;;1999.90;999.90;;;10.00;99.90;;;;;;5052980;28;20395;-77
2024/03/06 00:58:03;;;;;;;1999.90;999.90;;;10.10;99.90;;;;;;5052223;28;20025;-78
2024/03/06 01:00:30;;;;;;;1999.90;999.90;;;10.20;99.90;;;;;;5051684;28;20119;-78
2024/03/06 01:02:55;;;;;;;1999.90;999.90;;;10.30;99.90;;;;;;5055996;28;20154;-77
2024/03/06 01:05:21;;;;;;;1999.90;999.90;;;10.30;99.90;;;;;;5052492;28;20021;-77
2024/03/06 01:07:47;;;;;;;1999.90;999.90;;;10.30;99.90;;;;;;5061509;28;20013;-78
2024/03/06 01:10:12;;;;;;;1999.90;999.90;;;10.40;99.90;;;;;;5055106;28;20614;-79
2024/03/06 01:12:38;;;;;;;1999.90;999.90;;;10.40;99.90;;;;;;5051780;28;20029;-79
2024/03/06 01:15:04;;;;;;;1999.90;999.90;;;10.40;99.90;;;;;;5053527;28;20025;-78
2024/03/06 01:17:30;;;;;;;1999.90;999.90;;;10.50;99.90;;;;;;5051988;28;20029;-79
2024/03/06 01:19:56;;;;;;;1999.90;999.90;;;10.40;99.90;;;;;;5051770;28;20040;-78
2024/03/06 01:22:21;;;;;;;1999.90;999.90;;;10.40;99.90;;;;;;5054961;28;20028;-79
2024/03/06 01:24:48;;;;;;;1999.90;999.90;;;10.40;99.90;;;;;;5053586;28;20071;-77
2024/03/06 01:27:16;;;;;;;1999.90;999.90;;;10.40;99.90;;;;;;5053333;28;20399;-77
2024/03/06 01:29:42;;;;;;;1999.90;999.90;;;10.40;99.90;;;;;;5056366;28;20447;-77
2024/03/06 01:32:09;;;;;;;1999.90;999.90;;;10.30;99.90;;;;;;5051702;28;20100;-79
2024/03/06 01:34:35;;;;;;;1999.90;999.90;;;10.30;99.90;;;;;;5053910;28;20112;-79
2024/03/06 01:37:01;;;;;;;1999.90;999.90;;;10.30;99.90;;;;;;5053253;28;20052;-78
2024/03/06 01:39:27;;;;;;;1999.90;999.90;;;10.30;99.90;;;;;;5053519;28;20056;-77
2024/03/06 01:41:53;;;;;;;1999.90;999.90;;;10.20;99.90;;;;;;5053019;28;20498;-79
2024/03/06 01:44:19;;;;;;;1999.90;999.90;;;10.20;99.90;;;;;;5052767;28;20025;-77
2024/03/06 01:46:46;;;;;;;1999.90;999.90;;;10.20;99.90;;;;;;5051599;28;20489;-77
2024/03/06 01:49:14;;;;;;;1999.90;999.90;;;10.10;99.90;;;;;;5062625;28;20098;-77
2024/03/06 01:51:42;;;;;;;1999.90;999.90;;;10.10;99.90;;;;;;5051832;28;20514;-77
2024/03/06 01:54:08;;;;;;;1999.90;999.90;;;10.10;99.90;;;;;;5052809;28;20060;-77
2024/03/06 01:56:36;;;;;;;1999.90;999.90;;;10.10;99.90;;;;;;5052558;28;20025;-77
2024/03/06 01:59:03;;;;;;;1999.90;999.90;;;10.00;99.90;;;;;;5052851;28;20060;-77
2024/03/06 02:01:31;;;;;;;1999.90;999.90;;;10.00;99.90;;;;;;5053036;28;20044;-79
2024/03/06 02:03:56;;;;;;;1999.90;999.90;;;10.10;99.90;;;;;;5051397;28;20037;-77
2024/03/06 02:06:22;;;;;;;1999.90;999.90;;;10.00;99.90;;;;;;5051533;28;20029;-77
2024/03/06 02:08:48;;;;;;;1999.90;999.90;;;10.00;99.90;;;;;;5057711;28;20017;-78
2024/03/06 02:11:16;;;;;;;1999.90;999.90;;;9.90;99.90;;;;;;5051463;28;20035;-77
2024/03/06 02:13:43;;;;;;;1999.90;999.90;;;9.70;99.90;;;;;;5051313;28;20025;-79
2024/03/06 02:16:10;;;;;;;1999.90;999.90;;;9.60;99.90;;;;;;5059072;28;20029;-77
2024/03/06 02:18:36;;;;;;;1999.90;999.90;;;9.60;99.90;;;;;;5052985;28;20136;-77
2024/03/06 02:21:04;;;;;;;1999.90;999.90;;;9.60;99.90;;;;;;5054686;28;20403;-79
2024/03/06 02:23:30;;;;;;;1999.90;999.90;;;9.50;99.90;;;;;;5056542;28;20033;-77
2024/03/06 02:25:56;;;;;;;1999.90;999.90;;;9.50;99.90;;;;;;5055104;28;20048;-78
2024/03/06 02:28:21;;;;;;;1999.90;999.90;;;9.50;99.90;;;;;;5057188;28;20099;-78
2024/03/06 02:30:50;;;;;;;1999.90;999.90;;;9.50;99.90;;;;;;5056280;28;20025;-77
2024/03/06 02:33:17;;;;;;;1999.90;999.90;;;9.50;99.90;;;;;;5054819;28;20028;-79
2024/03/06 02:35:44;;;;;;;1999.90;999.90;;;9.50;99.90;;;;;;5065823;28;20020;-77
2024/03/06 02:38:10;;;;;;;1999.90;999.90;;;9.40;99.90;;;;;;5055905;28;20029;-77
2024/03/06 02:40:36;;;;;;;1999.90;999.90;;;9.40;99.90;;;;;;5056574;28;20041;-77
2024/03/06 02:43:02;;;;;;;1999.90;999.90;;;9.30;99.90;;;;;;5069281;28;20073;-77
2024/03/06 02:45:28;;;;;;;1999.90;999.90;;;9.20;99.90;;;;;;5056927;28;20033;-79
2024/03/06 02:47:54;;;;;;;1999.90;999.90;;;9.20;99.90;;;;;;5054837;28;20108;-77
2024/03/06 02:50:20;;;;;;;1999.90;999.90;;;9.20;99.90;;;;;;5055634;28;20126;-77
2024/03/06 02:52:46;;;;;;;1999.90;999.90;;;9.20;99.90;;;;;;5054560;28;20510;-77
2024/03/06 02:55:12;;;;;;;1999.90;999.90;;;9.10;99.90;;;;;;5054679;28;20029;-77
2024/03/06 02:57:38;;;;;;;1999.90;999.90;;;9.10;99.90;;;;;;5058175;28;20039;-78
2024/03/06 03:00:04;;;;;;;1999.90;999.90;;;9.00;99.90;;;;;;5055756;28;20025;-79
2024/03/06 03:02:31;;;;;;;1999.90;999.90;;;9.00;99.90;;;;;;5060430;28;20013;-79
2024/03/06 03:04:57;;;;;;;1999.90;999.90;;;9.00;99.90;;;;;;5054445;28;20112;-79
2024/03/06 03:07:23;;;;;;;1999.90;999.90;;;8.90;99.90;;;;;;5056035;28;20067;-77
2024/03/06 03:09:49;;;;;;;1999.90;999.90;;;8.90;99.90;;;;;;5055246;28;20029;-79
2024/03/06 03:12:14;;;;;;;1999.90;999.90;;;8.90;99.90;;;;;;5054521;28;20075;-77
2024/03/06 03:14:41;;;;;;;1999.90;999.90;;;8.80;99.90;;;;;;5053844;28;20108;-79
2024/03/06 03:17:07;;;;;;;1999.90;999.90;;;8.80;99.90;;;;;;5055287;28;20358;-79
2024/03/06 03:19:32;;;;;;;1999.90;999.90;;;8.80;99.90;;;;;;5054046;28;20091;-77
2024/03/06 03:21:59;;;;;;;1999.90;999.90;;;8.80;99.90;;;;;;5056379;28;20049;-77
2024/03/06 03:24:25;;;;;;;1999.90;999.90;;;8.80;99.90;;;;;;5055736;28;20033;-77
2024/03/06 03:26:51;;;;;;;1999.90;999.90;;;8.80;99.90;;;;;;5055561;28;20028;-77
2024/03/06 03:29:17;;;;;;;1999.90;999.90;;;8.80;99.90;;;;;;5057194;28;20029;-77
2024/03/06 03:31:46;;;;;;;1999.90;999.90;;;8.80;99.90;;;;;;5055203;28;20017;-79
2024/03/06 03:34:11;;;;;;;1999.90;999.90;;;8.80;99.90;;;;;;5055157;28;20559;-79
2024/03/06 03:36:41;;;;;;;1999.90;999.90;;;8.80;99.90;;;;;;5055320;28;20059;-78
2024/03/06 03:39:15;;;;;;;1999.90;999.90;;;8.80;99.90;;;;;;5055142;28;20033;-77
2024/03/06 03:41:46;;;;;;;1999.90;999.90;;;8.90;99.90;;;;;;5063881;28;20009;-78
2024/03/06 03:44:18;;;;;;;1999.90;999.90;;;8.90;99.90;;;;;;5056869;28;20029;-77
2024/03/06 03:46:44;;;;;;;1999.90;999.90;;;8.80;99.90;;;;;;5053416;28;20025;-77
2024/03/06 03:49:10;;;;;;;1999.90;999.90;;;8.90;99.90;;;;;;5060831;28;20060;-78
2024/03/06 03:51:38;;;;;;;1999.90;999.90;;;8.90;99.90;;;;;;5055414;28;20178;-80
2024/03/06 03:54:05;;;;;;;1999.90;999.90;;;8.90;99.90;;;;;;5053383;28;20415;-77
2024/03/06 03:56:31;;;;;;;1999.90;999.90;;;8.90;99.90;;;;;;5054863;28;20060;-79
2024/03/06 03:58:58;;;;;;;1999.90;999.90;;;8.90;99.90;;;;;;5052869;28;20028;-77
2024/03/06 04:01:24;;;;;;;1999.90;999.90;;;8.90;99.90;;;;;;5054460;28;20021;-79
2024/03/06 04:03:50;;;;;;;1999.90;999.90;;;8.90;99.90;;;;;;5056122;28;20063;-77
2024/03/06 04:06:16;;;;;;;1999.90;999.90;;;8.90;99.90;;;;;;5053396;28;20029;-79
2024/03/06 04:08:41;;;;;;;1999.90;999.90;;;9.00;99.90;;;;;;5059460;28;20021;-78
2024/03/06 04:11:08;;;;;;;1999.90;999.90;;;9.00;99.90;;;;;;5056534;28;20033;-77
2024/03/06 04:13:37;;;;;;;1999.90;999.90;;;9.00;99.90;;;;;;5054216;28;20017;-77
2024/03/06 04:16:03;;;;;;;1999.90;999.90;;;9.00;99.90;;;;;;5054861;28;20029;-79
2024/03/06 04:18:33;;;;;;;1999.90;999.90;;;9.00;99.90;;;;;;5052807;28;20045;-79
2024/03/06 04:21:01;;;;;;;1999.90;999.90;;;9.10;99.90;;;;;;5052772;28;20028;-77
2024/03/06 04:23:27;;;;;;;1999.90;999.90;;;9.10;99.90;;;;;;5056121;28;20123;-77
2024/03/06 04:25:53;;;;;;;1999.90;999.90;;;9.10;99.90;;;;;;5053178;28;20116;-77
2024/03/06 04:28:18;;;;;;;1999.90;999.90;;;9.10;99.90;;;;;;5052670;28;20111;-77
2024/03/06 04:30:44;;;;;;;1999.90;999.90;;;9.10;99.90;;;;;;5056466;28;20028;-77
2024/03/06 04:33:13;;;;;;;1999.90;999.90;;;9.20;99.90;;;;;;5052759;28;20117;-77
2024/03/06 04:35:39;;;;;;;1999.90;999.90;;;9.20;99.90;;;;;;5054217;28;20017;-77
2024/03/06 04:38:06;;;;;;;1999.90;999.90;;;9.20;99.90;;;;;;5054022;28;20392;-77
2024/03/06 04:40:32;;;;;;;1999.90;999.90;;;9.20;99.90;;;;;;5052877;28;20207;-77
2024/03/06 04:42:57;;;;;;;1999.90;999.90;;;9.20;99.90;;;;;;5060183;28;20143;-78
2024/03/06 04:45:23;;;;;;;1999.90;999.90;;;9.20;99.90;;;;;;5052322;28;20048;-79
2024/03/06 04:47:49;;;;;;;1999.90;999.90;;;9.20;99.90;;;;;;5052400;28;20029;-79
2024/03/06 04:50:15;;;;;;;1999.90;999.90;;;9.20;99.90;;;;;;5064886;28;20131;-79
2024/03/06 04:52:41;;;;;;;1999.90;999.90;;;9.20;99.90;;;;;;5052523;28;20029;-77
2024/03/06 04:55:10;;;;;;;1999.90;999.90;;;9.10;99.90;;;;;;5053786;28;20146;-80
2024/03/06 04:57:42;;;;;;;1999.90;999.90;;;9.10;99.90;;;;;;5053969;28;20025;-77
2024/03/06 05:00:09;;;;;;;1999.90;999.90;;;9.10;99.90;;;;;;5053476;28;20021;-79
2024/03/06 05:02:36;;;;;;;1999.90;999.90;;;9.10;99.90;;;;;;5055083;28;20064;-78
2024/03/06 05:05:03;;;;;;;1999.90;999.90;;;9.10;99.90;;;;;;5053816;28;20020;-79
2024/03/06 05:07:32;;;;;;;1999.90;999.90;;;9.20;99.90;;;;;;5052289;28;20025;-79
2024/03/06 05:09:58;;;;;;;1999.90;999.90;;;9.10;99.90;;;;;;5064608;28;20068;-79
2024/03/06 05:12:28;;;;;;;1999.90;999.90;;;9.10;99.90;;;;;;5053520;28;20497;-79
2024/03/06 05:14:54;;;;;;;1999.90;999.90;;;9.20;99.90;;;;;;5053101;28;20392;-77
2024/03/06 05:17:20;;;;;;;1999.90;999.90;;;9.20;99.90;;;;;;5053270;28;20036;-79
2024/03/06 05:19:47;;;;;;;1999.90;999.90;;;9.20;99.90;;;;;;5053133;28;20053;-79
2024/03/06 05:22:13;;;;;;;1999.90;999.90;;;9.20;99.90;;;;;;5053188;28;20025;-77
2024/03/06 05:24:39;;;;;;;1999.90;999.90;;;9.30;99.90;;;;;;5053232;28;20422;-78
2024/03/06 05:27:05;;;;;;;1999.90;999.90;;;9.30;99.90;;;;;;5051839;28;20039;-78
2024/03/06 05:29:31;;;;;;;1999.90;999.90;;;9.30;99.90;;;;;;5061274;28;20040;-79
2024/03/06 05:31:57;;;;;;;1999.90;999.90;;;9.40;99.90;;;;;;5054452;28;20067;-78
2024/03/06 05:34:23;;;;;;;1999.90;999.90;;;9.40;99.90;;;;;;5053276;28;20028;-80
2024/03/06 05:36:49;;;;;;;1999.90;999.90;;;9.40;99.90;;;;;;5061766;28;20037;-79
2024/03/06 05:39:14;;;;;;;1999.90;999.90;;;9.50;99.90;;;;;;5066489;28;20131;-80
2024/03/06 05:41:41;;;;;;;1999.90;999.90;;;9.50;99.90;;;;;;5053223;28;20087;-77
2024/03/06 05:44:07;;;;;;;1999.90;999.90;;;9.50;99.90;;;;;;5053208;28;20104;-79
2024/03/06 05:46:33;;;;;;;1999.90;999.90;;;9.40;99.90;;;;;;5052486;28;20087;-79
2024/03/06 05:48:59;;;;;;;1999.90;999.90;;;9.50;99.90;;;;;;5053081;28;20434;-78
2024/03/06 05:51:25;;;;;;;1999.90;999.90;;;9.50;99.90;;;;;;5055201;28;20031;-79
2024/03/06 05:53:50;;;;;;;1999.90;999.90;;;9.50;99.90;;;;;;5053244;28;20487;-78
2024/03/06 05:56:18;;;;;;;1999.90;999.90;;;9.50;99.90;;;;;;5057339;28;20388;-79
2024/03/06 05:58:46;;;;;;;1999.90;999.90;;;9.60;99.90;;;;;;5058543;28;20419;-79
2024/03/06 06:01:15;;;;;;;1999.90;999.90;;;9.60;99.90;;;;;;5055591;28;20040;-79
2024/03/06 06:03:41;;;;;;;1999.90;999.90;;;9.60;99.90;;;;;;5056102;28;20117;-79
2024/03/06 06:06:10;;;;;;;1999.90;999.90;;;9.60;99.90;;;;;;5056854;28;20041;-78
2024/03/06 06:08:36;;;;;;;1999.90;999.90;;;9.70;99.90;;;;;;5056679;28;20036;-79
2024/03/06 06:11:04;;;;;;;1999.90;999.90;;;9.70;99.90;;;;;;5057592;28;20025;-78
2024/03/06 06:13:30;;;;;;;1999.90;999.90;;;9.80;99.90;;;;;;5056588;28;20071;-78
2024/03/06 06:15:58;;;;;;;1999.90;999.90;;;9.80;99.90;;;;;;5056798;28;20376;-78
2024/03/06 06:18:23;;;;;;;1999.90;999.90;;;9.80;99.90;;;;;;5056031;28;20076;-79
2024/03/06 06:20:49;;;;;;;1999.90;999.90;;;9.80;99.90;;;;;;5055134;28;20028;-80
2024/03/06 06:23:18;;;;;;;1999.90;999.90;;;9.90;99.90;;;;;;5058185;28;20502;-79
2024/03/06 06:25:43;;;;;;;1999.90;999.90;;;9.90;99.90;;;;;;5058722;28;20029;-79
2024/03/06 06:28:10;;;;;;;1999.90;999.90;;;9.90;99.90;;;;;;5054853;28;20028;-78
2024/03/06 06:30:36;;;;;;;1999.90;999.90;;;10.00;99.90;;;;;;5060025;28;20289;-79
2024/03/06 06:33:01;;;;;;;1999.90;999.90;;;10.00;99.90;;;;;;5060001;28;20033;-80
2024/03/06 06:35:27;;;;;;;1999.90;999.90;;;10.00;99.90;;;;;;5056217;28;20361;-78
2024/03/06 06:37:53;;;;;;;1999.90;999.90;;;10.10;99.90;;;;;;5055705;28;20025;-80
2024/03/06 06:40:19;;;;;;;1999.90;999.90;;;10.10;99.90;;;;;;5058960;28;20025;-78
2024/03/06 06:42:49;;;;;;;1999.90;999.90;;;10.10;99.90;;;;;;5054709;28;20071;-79
2024/03/06 06:45:19;;;;;;;1999.90;999.90;;;10.10;99.90;;;;;;5067955;28;20033;-79
2024/03/06 06:47:45;;;;;;;1999.90;999.90;;;10.20;99.90;;;;;;5054367;28;20036;-80
2024/03/06 06:50:11;;;;;;;1999.90;999.90;;;10.20;99.90;;;;;;5055045;28;20029;-80
2024/03/06 06:52:38;;;;;;;1999.90;999.90;;;10.20;99.90;;;;;;5055887;28;20456;-79
2024/03/06 06:55:04;;;;;;;1999.90;999.90;;;10.20;99.90;;;;;;5059759;28;20016;-80
2024/03/06 06:57:31;;;;;;;1999.90;999.90;;;10.30;99.90;;;;;;5075106;28;20035;-78
2024/03/06 06:59:56;;;;;;;1999.90;999.90;;;10.40;99.90;;;;;;5071398;28;20033;-80
2024/03/06 07:02:22;;;;;;;1999.90;999.90;;;10.40;99.90;;;;;;5058267;28;20036;-80
2024/03/06 07:04:48;;;;;;;1999.90;999.90;;;10.50;99.90;;;;;;5059992;28;20399;-80
2024/03/06 07:07:14;;;;;;;1999.90;999.90;;;10.50;99.90;;;;;;5070236;28;20511;-80
2024/03/06 07:09:40;;;;;;;1999.90;999.90;;;10.60;99.90;;;;;;5053674;28;20040;-78
2024/03/06 07:12:07;;;;;;;1999.90;999.90;;;10.60;99.90;;;;;;5050662;28;20037;-81
2024/03/06 07:14:33;;;;;;;1999.90;999.90;;;10.60;99.90;;;;;;5052397;28;20086;-78
2024/03/06 07:17:00;;;;;;;1999.90;999.90;;;10.70;99.90;;;;;;5054774;28;20029;-80
2024/03/06 07:19:26;;;;;;;1999.90;999.90;;;10.70;99.90;;;;;;5053606;28;20453;-81
2024/03/06 07:21:53;;;;;;;1999.90;999.90;;;10.80;99.90;;;;;;5053518;28;20021;-79
2024/03/06 07:24:19;;;;;;;1999.90;999.90;;;10.80;99.90;;;;;;5056372;28;20111;-81
2024/03/06 07:26:45;;;;;;;1999.90;999.90;;;10.90;99.90;;;;;;5056696;28;20053;-80
2024/03/06 07:29:14;;;;;;;1999.90;999.90;;;10.90;99.90;;;;;;5061072;28;20027;-80
2024/03/06 07:31:41;;;;;;;1999.90;999.90;;;11.00;99.90;;;;;;5056611;28;20120;-81
2024/03/06 07:34:08;;;;;;;1999.90;999.90;;;11.00;99.90;;;;;;5058854;28;20053;-78
2024/03/06 07:36:34;;;;;;;1999.90;999.90;;;11.00;99.90;;;;;;5061404;28;20021;-78
2024/03/06 07:39:04;;;;;;;1999.90;999.90;;;11.10;99.90;;;;;;5053104;28;20107;-81
2024/03/06 07:41:30;;;;;;;1999.90;999.90;;;11.10;99.90;;;;;;5063789;28;20029;-79
2024/03/06 07:43:56;;;;;;;1999.90;999.90;;;11.10;99.90;;;;;;5057922;28;20066;-78
2024/03/06 07:46:22;;;;;;;1999.90;999.90;;;11.20;99.90;;;;;;5053539;28;20512;-77
2024/03/06 07:48:49;;;;;;;1999.90;999.90;;;11.20;99.90;;;;;;5050918;28;20021;-78
2024/03/06 07:51:14;;;;;;;1999.90;999.90;;;11.20;99.90;;;;;;5062046;28;20021;-80
2024/03/06 07:53:40;;;;;;;1999.90;999.90;;;11.30;99.90;;;;;;5061272;28;20108;-79
2024/03/06 07:56:12;;;;;;;1999.90;999.90;;;11.30;99.90;;;;;;5056402;28;20036;-84
2024/03/06 07:58:38;;;;;;;1999.90;999.90;;;11.30;99.90;;;;;;5053436;28;20025;-80
2024/03/06 08:01:04;;;;;;;1999.90;999.90;;;11.40;99.90;;;;;;5063871;28;20317;-83
2024/03/06 08:03:30;;;;;;;1999.90;999.90;;;11.40;99.90;;;;;;5052050;28;20033;-81
2024/03/06 08:05:56;;;;;;;1999.90;999.90;;;11.40;99.90;;;;;;5070109;28;20021;-80
2024/03/06 08:08:22;;;;;;;1999.90;999.90;;;11.50;99.90;;;;;;5060472;28;20052;-81
2024/03/06 08:10:47;;;;;;;1999.90;999.90;;;11.50;99.90;;;;;;5066258;28;20031;-79
2024/03/06 08:13:14;;;;;;;1999.90;999.90;;;11.40;99.90;;;;;;5053517;28;20036;-81
2024/03/06 08:15:40;;;;;;;1999.90;999.90;;;11.40;99.90;;;;;;5053555;28;20024;-81
2024/03/06 08:18:06;;;;;;;1999.90;999.90;;;11.40;99.90;;;;;;5055485;28;20037;-81
2024/03/06 08:20:32;;;;;;;1999.90;999.90;;;11.50;99.90;;;;;;5061773;28;20018;-81
2024/03/06 08:22:58;;;;;;;1999.90;999.90;;;11.50;99.90;;;;;;5052945;28;20024;-81
2024/03/06 08:25:24;;;;;;;1999.90;999.90;;;11.50;99.90;;;;;;5065661;28;20062;-81
2024/03/06 08:27:50;;;;;;;1999.90;999.90;;;11.60;99.90;;;;;;5070035;28;20077;-83
2024/03/06 08:30:16;;;;;;;1999.90;999.90;;;11.60;99.90;;;;;;5050854;28;20416;-82
2024/03/06 08:32:43;;;;;;;1999.90;999.90;;;11.50;99.90;;;;;;5040555;28;20044;-82
2024/03/06 08:35:12;;;;;;;1999.90;999.90;;;11.60;99.90;;;;;;5035568;28;20499;-83
2024/03/06 08:37:41;;;;;;;1999.90;999.90;;;11.70;99.90;;;;;;5052039;28;20043;-83
2024/03/06 08:40:10;;;;;;;1999.90;999.90;;;11.90;99.90;;;;;;5050637;28;20032;-83
2024/03/06 08:42:35;;;;;;;1999.90;999.90;;;12.00;99.90;;;;;;5056577;28;20121;-84
2024/03/06 08:45:04;;;;;;;1999.90;999.90;;;11.90;99.90;;;;;;5060326;28;20427;-83
2024/03/06 08:47:29;;;;;;;1999.90;999.90;;;11.90;99.90;;;;;;5081164;28;20032;-82
2024/03/06 08:49:55;;;;;;;1999.90;999.90;;;11.80;99.90;;;;;;5064400;28;20445;-83
2024/03/06 08:52:21;;;;;;;1999.90;999.90;;;11.80;99.90;;;;;;5053121;28;20490;-85
2024/03/06 08:54:46;;;;;;;1999.90;999.90;;;11.80;99.90;;;;;;5060729;28;20028;-82
2024/03/06 08:57:12;;;;;;;1999.90;999.90;;;11.70;99.90;;;;;;5057729;28;20033;-81
2024/03/06 08:59:38;;;;;;;1999.90;999.90;;;11.50;99.90;;;;;;5052513;28;20025;-81
2024/03/06 09:02:19;;;;;;;1999.90;999.90;;;11.40;99.90;;;;;;5043099;28;20040;-80
2024/03/06 09:04:45;;;;;;;1999.90;999.90;;;11.30;99.90;;;;;;5070522;28;20063;-83
2024/03/06 09:07:12;;;;;;;1999.90;999.90;;;11.20;99.90;;;;;;5052787;28;20506;-83
2024/03/06 09:09:38;;;;;;;1999.90;999.90;;;11.20;99.90;;;;;;5048868;28;20051;-82
2024/03/06 09:12:05;;;;;;;1999.90;999.90;;;11.10;99.90;;;;;;5060259;28;20045;-81
2024/03/06 09:14:32;;;;;;;1999.90;999.90;;;11.10;99.90;;;;;;5059673;28;20029;-82
2024/03/06 09:16:58;;;;;;;1999.90;999.90;;;11.10;99.90;;;;;;5061758;28;20492;-81
2024/03/06 09:19:23;;;;;;;1999.90;999.90;;;11.20;99.90;;;;;;5053731;28;20055;-82
2024/03/06 09:21:49;;;;;;;1999.90;999.90;;;11.10;99.90;;;;;;5062771;28;20037;-82
2024/03/06 09:24:14;;;;;;;1999.90;999.90;;;11.10;99.90;;;;;;5046239;28;20519;-82
2024/03/06 09:26:40;;;;;;;1999.90;999.90;;;11.20;99.90;;;;;;5061264;28;20025;-83
2024/03/06 09:29:06;;;;;;;1999.90;999.90;;;11.50;99.90;;;;;;5051672;28;20071;-82
2024/03/06 09:31:31;;;;;;;1999.90;999.90;;;11.40;99.90;;;;;;5074502;28;20031;-81
2024/03/06 09:33:57;;;;;;;1999.90;999.90;;;11.40;99.90;;;;;;5058370;28;20017;-82
2024/03/06 09:36:23;;;;;;;1999.90;999.90;;;11.20;99.90;;;;;;5047027;28;20476;-82
2024/03/06 09:38:49;;;;;;;1999.90;999.90;;;11.10;99.90;;;;;;5053447;28;20040;-80
2024/03/06 09:41:15;;;;;;;1999.90;999.90;;;11.10;99.90;;;;;;5057080;28;20406;-82
2024/03/06 09:43:43;;;;;;;1999.90;999.90;;;10.90;99.90;;;;;;5047470;28;20100;-83
2024/03/06 09:46:09;;;;;;;1999.90;999.90;;;10.90;99.90;;;;;;5052105;28;20033;-83
2024/03/06 09:48:35;;;;;;;1999.90;999.90;;;10.90;99.90;;;;;;5051167;28;20085;-80
2024/03/06 09:51:02;;;;;;;1999.90;999.90;;;10.80;99.90;;;;;;5047212;28;20029;-82
2024/03/06 09:53:28;;;;;;;1999.90;999.90;;;10.90;99.90;;;;;;5052307;28;20434;-82
2024/03/06 09:55:57;;;;;;;1999.90;999.90;;;11.00;99.90;;;;;;5064023;28;20055;-82
2024/03/06 09:58:23;;;;;;;1999.90;999.90;;;11.10;99.90;;;;;;5054102;28;20036;-81
2024/03/06 10:00:51;;;;;;;1999.90;999.90;;;11.00;99.90;;;;;;5037802;28;20031;-82
2024/03/06 10:03:17;;;;;;;1999.90;999.90;;;11.20;99.90;;;;;;5041794;28;20593;-81
2024/03/06 10:05:43;;;;;;;1999.90;999.90;;;11.20;99.90;;;;;;5062021;28;20013;-81
2024/03/06 10:08:09;;;;;;;1999.90;999.90;;;11.40;99.90;;;;;;5052481;28;20056;-81
2024/03/06 10:10:36;;;;;;;1999.90;999.90;;;11.50;99.90;;;;;;5060214;28;20480;-80
2024/03/06 10:13:02;;;;;;;1999.90;999.90;;;11.50;99.90;;;;;;5072574;28;20506;-80
2024/03/06 10:15:29;;;;;;;1999.90;999.90;;;11.30;99.90;;;;;;5074857;28;20020;-82
2024/03/06 10:18:14;;;;;;;1999.90;999.90;;;11.00;99.90;;;;;;5055458;28;20064;-82
2024/03/06 10:20:43;;;;;;;1999.90;999.90;;;10.90;99.90;;;;;;5072091;28;20032;-82
2024/03/06 10:23:09;;;;;;;1999.90;999.90;;;10.80;99.90;;;;;;5077685;28;20044;-82
2024/03/06 10:25:35;;;;;;;1999.90;999.90;;;10.80;99.90;;;;;;5061654;28;20395;-82
2024/03/06 10:28:09;;;;;;;1999.90;999.90;;;11.00;99.90;;;;;;5071493;28;20118;-81
2024/03/06 10:30:36;;;;;;;1999.90;999.90;;;11.00;99.90;;;;;;5070884;28;20033;-82
2024/03/06 10:33:06;;;;;;;1999.90;999.90;;;11.00;99.90;;;;;;5053376;28;20428;-81
2024/03/06 10:35:38;;;;;;;1999.90;999.90;;;10.80;99.90;;;;;;5050912;28;20040;-80
2024/03/06 10:38:05;;;;;;;1999.90;999.90;;;10.70;99.90;;;;;;5062034;28;20395;-82
2024/03/06 10:40:32;;;;;;;1999.90;999.90;;;10.70;99.90;;;;;;5055966;28;20475;-82
2024/03/06 10:43:00;;;;;;;1999.90;999.90;;;10.60;99.90;;;;;;5052215;28;20052;-82
2024/03/06 10:45:38;;;;;;;1999.90;999.90;;;10.60;99.90;;;;;;5040923;28;20545;-82
2024/03/06 10:48:05;;;;;;;1999.90;999.90;;;10.40;99.90;;;;;;5074498;28;20049;-80
2024/03/06 10:50:32;;;;;;;1999.90;999.90;;;10.40;99.90;;;;;;5061264;28;20025;-83
2024/03/06 10:52:59;;;;;;;1999.90;999.90;;;10.60;99.90;;;;;;5055080;28;20075;-82
2024/03/06 10:55:27;;;;;;;1999.90;999.90;;;10.60;99.90;;;;;;5067655;28;20021;-82
2024/03/06 10:57:55;;;;;;;1999.90;999.90;;;10.60;99.90;;;;;;5081671;28;20029;-82
2024/03/06 11:00:22;;;;;;;1999.90;999.90;;;10.70;99.90;;;;;;5044963;28;20435;-81
2024/03/06 11:02:49;;;;;;;1999.90;999.90;;;10.80;99.90;;;;;;5036661;28;20491;-82
2024/03/06 11:05:15;;;;;;;1999.90;999.90;;;11.00;99.90;;;;;;5052756;28;20036;-80
2024/03/06 11:07:41;;;;;;;1999.90;999.90;;;11.20;99.90;;;;;;5054567;28;20025;-83
2024/03/06 11:10:07;;;;;;;1999.90;999.90;;;11.20;99.90;;;;;;5055380;28;20040;-81
2024/03/06 11:12:38;;;;;;;1999.90;999.90;;;11.30;99.90;;;;;;5054952;28;20052;-83
2024/03/06 11:15:30;;;;;;;1999.90;999.90;;;11.30;99.90;;;;;;5054462;28;20104;-81
2024/03/06 11:17:55;;;;;;;1999.90;999.90;;;11.40;99.90;;;;;;5054286;28;20060;-82
2024/03/06 11:20:24;;;;;;;1999.90;999.90;;;11.40;99.90;;;;;;5055750;28;20030;-81
2024/03/06 11:22:58;;;;;;;1999.90;999.90;;;11.30;99.90;;;;;;5058805;28;20024;-81
2024/03/06 11:25:55;;;;;;;1999.90;999.90;;;11.30;99.90;;;;;;5049140;28;20086;-81
2024/03/06 11:28:22;;;;;;;1999.90;999.90;;;11.30;99.90;;;;;;5047049;28;20025;-81
2024/03/06 11:31:11;;;;;;;1999.90;999.90;;;11.30;99.90;;;;;;5052099;28;20108;-83
2024/03/06 11:33:47;;;;;;;1999.90;999.90;;;11.20;99.90;;;;;;5065303;28;20106;-82
2024/03/06 11:36:30;;;;;;;1999.90;999.90;;;11.00;99.90;;;;;;5052864;28;20036;-81
2024/03/06 11:39:07;;;;;;;1999.90;999.90;;;10.90;99.90;;;;;;5061803;28;20324;-82
2024/03/06 11:41:44;;;;;;;1999.90;999.90;;;10.80;99.90;;;;;;5077513;28;20058;-81
2024/03/06 11:44:29;;;;;;;1999.90;999.90;;;10.60;99.90;;;;;;5039054;28;20127;-81
2024/03/06 11:46:59;;;;;;;1999.90;999.90;;;10.50;99.90;;;;;;5052810;28;20033;-81
2024/03/06 11:49:28;;;;;;;1999.90;999.90;;;10.80;99.90;;;;;;5060341;28;20036;-81
2024/03/06 11:52:08;;;;;;;1999.90;999.90;;;10.90;99.90;;;;;;5050524;28;20400;-81
2024/03/06 11:54:34;;;;;;;1999.90;999.90;;;11.00;99.90;;;;;;5049337;28;20112;-81
2024/03/06 11:57:02;;;;;;;1999.90;999.90;;;11.20;99.90;;;;;;5052454;28;20093;-81
2024/03/06 11:59:30;;;;;;;1999.90;999.90;;;11.40;99.90;;;;;;5048098;28;20112;-81
2024/03/06 12:01:58;;;;;;;1999.90;999.90;;;11.50;99.90;;;;;;5050163;28;20083;-82
2024/03/06 12:04:24;;;;;;;1999.90;999.90;;;11.90;99.90;;;;;;5050955;28;20030;-80